createdAt,value
2022-10-04T00:00:01.557Z,17.17
2022-10-04T00:15:02.204Z,17.15
2022-10-04T00:30:01.883Z,16.97
2022-10-04T00:45:01.554Z,17.06
2022-10-04T01:00:02.184Z,17.08
2022-10-04T01:15:01.831Z,17.04
2022-10-04T01:30:01.522Z,17.04
2022-10-04T01:45:02.188Z,17.01
2022-10-04T02:00:01.837Z,17.2
2022-10-04T02:15:01.460Z,17.32
2022-10-04T02:30:02.143Z,17.26
2022-10-04T02:45:01.793Z,16.96
2022-10-04T03:00:01.382Z,17.04
2022-10-04T03:15:02.027Z,17.17
2022-10-04T03:30:01.689Z,17.27
2022-10-04T03:45:01.320Z,17.27
2022-10-04T04:00:01.937Z,17.26
2022-10-04T04:15:01.748Z,17.41
2022-10-04T04:30:01.350Z,17.15
2022-10-04T04:45:02.327Z,17.13
2022-10-04T05:00:02.036Z,17.12
2022-10-04T05:15:01.708Z,17.01
2022-10-04T05:30:02.350Z,16.62
2022-10-04T05:45:01.947Z,16.54
2022-10-04T06:00:04.493Z,16.77
2022-10-04T06:15:02.406Z,17.39
2022-10-04T06:30:02.049Z,17.98
2022-10-04T06:45:01.652Z,18.96
2022-10-04T07:00:02.244Z,19.13
2022-10-04T07:15:01.863Z,19.33
2022-10-04T07:30:01.489Z,20.12
2022-10-04T07:45:02.086Z,20.25
2022-10-04T08:00:01.698Z,20.42
2022-10-04T08:15:02.316Z,20.28
2022-10-04T08:30:01.971Z,23.67
2022-10-04T08:45:01.604Z,23.37
2022-10-04T09:00:02.213Z,26.97
2022-10-04T09:15:01.866Z,28.64
2022-10-04T09:30:01.507Z,30.1
2022-10-04T09:45:02.121Z,29.13
2022-10-04T10:00:01.719Z,30.44
2022-10-04T10:15:01.353Z,30.41
2022-10-04T10:30:01.982Z,31.17
2022-10-04T10:45:01.603Z,31.14
2022-10-04T11:00:02.190Z,32.69
2022-10-04T11:15:01.824Z,33.71
2022-10-04T11:30:01.420Z,33.26
2022-10-04T11:45:02.047Z,33.49
2022-10-04T12:00:01.643Z,33
2022-10-04T12:15:01.264Z,34.02
2022-10-04T12:30:01.917Z,34.12
2022-10-04T12:45:01.920Z,34.4
2022-10-04T13:00:02.498Z,34.53
2022-10-04T13:15:02.153Z,33.97
2022-10-04T13:30:01.835Z,34.39
2022-10-04T13:45:02.493Z,34.53
2022-10-04T14:00:02.117Z,33.47
2022-10-04T14:15:01.776Z,34.45
2022-10-04T14:30:02.463Z,34.03
2022-10-04T14:45:02.064Z,32.94
2022-10-04T15:00:01.689Z,29.18
2022-10-04T15:15:02.322Z,28.43
2022-10-04T15:30:01.928Z,27.84
2022-10-04T15:45:01.580Z,28.06
2022-10-04T16:00:02.189Z,26.03
2022-10-04T16:15:01.801Z,24.87
2022-10-04T16:30:25.601Z,23.22
2022-10-04T16:45:01.520Z,22.22
2022-10-04T17:00:02.115Z,21.19
2022-10-04T17:15:01.745Z,20.52
2022-10-04T17:30:01.405Z,20.1
2022-10-04T17:45:02.052Z,19.73
2022-10-04T18:00:01.656Z,19.51
2022-10-04T18:15:02.321Z,19.25
2022-10-04T18:30:01.981Z,18.96
2022-10-04T18:45:01.606Z,18.47
2022-10-04T19:00:02.232Z,18.35
2022-10-04T19:15:01.860Z,18.23
2022-10-04T19:30:01.479Z,17.86
2022-10-04T19:45:02.139Z,17.87
2022-10-04T20:00:01.768Z,17.9
2022-10-04T20:15:01.394Z,17.93
2022-10-04T20:30:02.154Z,17.82
2022-10-04T20:45:02.117Z,18.01
2022-10-04T21:00:01.712Z,18.07
2022-10-04T21:15:02.342Z,18.02
2022-10-04T21:30:01.992Z,18.1
2022-10-04T21:45:01.641Z,18.02
2022-10-04T22:00:02.255Z,17.98
2022-10-04T22:15:01.883Z,17.93
2022-10-04T22:30:01.543Z,17.77
2022-10-04T22:45:02.182Z,17.8
2022-10-04T23:00:01.812Z,18.06
2022-10-04T23:15:02.461Z,17.99
2022-10-04T23:30:02.084Z,17.97
2022-10-04T23:45:01.702Z,18.07
